createdAt,value
2023-05-17T00:00:10.639Z,3.37
2023-05-17T00:02:38.701Z,3.33
2023-05-17T00:05:07.325Z,3.30
2023-05-17T00:07:36.531Z,3.50
2023-05-17T00:10:04.475Z,3.17
2023-05-17T00:12:32.305Z,3.53
2023-05-17T00:15:00.046Z,3.80
2023-05-17T00:17:27.861Z,2.83
2023-05-17T00:19:55.953Z,3.20
2023-05-17T00:22:23.725Z,3.07
2023-05-17T00:24:52.861Z,2.97
2023-05-17T00:27:20.639Z,3.77
2023-05-17T00:29:48.412Z,3.30
2023-05-17T00:32:16.152Z,3.40
2023-05-17T00:34:43.918Z,3.33
2023-05-17T00:37:11.766Z,3.47
2023-05-17T00:39:39.542Z,3.50
2023-05-17T00:42:08.766Z,3.07
2023-05-17T00:44:36.549Z,2.80
2023-05-17T00:47:04.428Z,3.43
2023-05-17T00:49:32.220Z,3.43
2023-05-17T00:52:00.493Z,3.50
2023-05-17T00:54:28.253Z,3.27
2023-05-17T00:56:57.175Z,3.40
2023-05-17T00:59:27.269Z,3.77
2023-05-17T01:01:55.170Z,2.90
2023-05-17T01:04:22.954Z,3.70
2023-05-17T01:06:50.774Z,3.40
2023-05-17T01:09:18.899Z,2.90
2023-05-17T01:11:52.637Z,3.40
2023-05-17T01:14:31.829Z,3.33
2023-05-17T01:17:02.806Z,3.00
2023-05-17T01:19:46.816Z,3.37
2023-05-17T01:22:22.276Z,2.90
2023-05-17T01:24:54.599Z,3.00
2023-05-17T01:27:26.561Z,2.70
2023-05-17T01:29:56.262Z,3.30
2023-05-17T01:32:24.805Z,3.10
2023-05-17T01:34:52.607Z,3.13
2023-05-17T01:37:20.393Z,2.97
2023-05-17T01:39:48.152Z,3.33
2023-05-17T01:42:22.520Z,3.50
2023-05-17T01:44:58.164Z,3.20
2023-05-17T01:47:32.014Z,3.23
2023-05-17T01:50:00.740Z,3.00
2023-05-17T01:52:31.894Z,3.13
2023-05-17T01:55:06.690Z,3.20
2023-05-17T01:57:36.936Z,3.67
2023-05-17T02:00:09.232Z,3.10
2023-05-17T02:02:37.350Z,3.27
2023-05-17T02:05:05.722Z,3.87
2023-05-17T02:07:33.508Z,3.87
2023-05-17T02:10:01.327Z,3.40
2023-05-17T02:12:29.117Z,3.13
2023-05-17T02:14:56.912Z,3.90
2023-05-17T02:17:26.367Z,3.53
2023-05-17T02:19:54.241Z,3.57
2023-05-17T02:22:22.045Z,3.43
2023-05-17T02:24:50.066Z,3.57
2023-05-17T02:27:17.861Z,3.70
2023-05-17T02:29:45.633Z,4.17
2023-05-17T02:32:13.457Z,3.50
2023-05-17T02:34:42.652Z,2.67
2023-05-17T02:37:10.464Z,3.43
2023-05-17T02:39:38.230Z,3.27
2023-05-17T02:42:06.587Z,4.10
2023-05-17T02:44:34.416Z,3.93
2023-05-17T02:47:02.203Z,3.53
2023-05-17T02:49:30.052Z,3.17
2023-05-17T02:52:00.421Z,2.90
2023-05-17T02:54:28.218Z,4.07
2023-05-17T02:56:56.017Z,3.47
2023-05-17T02:59:23.839Z,3.30
2023-05-17T03:01:51.648Z,3.67
2023-05-17T03:04:20.388Z,3.37
2023-05-17T03:06:48.229Z,3.77
2023-05-17T03:09:17.381Z,3.40
2023-05-17T03:11:45.192Z,3.27
2023-05-17T03:14:13.585Z,3.10
2023-05-17T03:16:41.543Z,3.73
2023-05-17T03:19:09.488Z,3.50
2023-05-17T03:21:37.416Z,2.93
2023-05-17T03:24:05.857Z,3.30
2023-05-17T03:26:35.006Z,3.23
2023-05-17T03:29:02.813Z,2.83
2023-05-17T03:31:31.283Z,3.60
2023-05-17T03:33:59.257Z,3.40
2023-05-17T03:36:27.149Z,3.20
2023-05-17T03:38:54.971Z,3.53
2023-05-17T03:41:22.827Z,3.70
2023-05-17T03:43:51.978Z,3.60
2023-05-17T03:46:19.805Z,3.30
2023-05-17T03:48:47.626Z,3.43
2023-05-17T03:51:15.556Z,3.50
2023-05-17T03:53:43.705Z,3.30
2023-05-17T03:56:12.008Z,3.70
2023-05-17T03:58:39.905Z,3.23
2023-05-17T04:01:09.082Z,3.70
2023-05-17T04:03:37.474Z,3.60
2023-05-17T04:06:07.374Z,3.33
2023-05-17T04:08:35.702Z,4.10
2023-05-17T04:11:10.253Z,4.43
2023-05-17T04:13:38.251Z,3.90
2023-05-17T04:16:06.883Z,3.70
2023-05-17T04:18:38.069Z,3.90
2023-05-17T04:21:06.433Z,3.67
2023-05-17T04:23:35.156Z,3.50
2023-05-17T04:26:03.276Z,4.23
2023-05-17T04:28:31.209Z,4.60
2023-05-17T04:30:59.145Z,4.20
2023-05-17T04:33:27.507Z,3.53
2023-05-17T04:35:57.797Z,4.47
2023-05-17T04:38:25.566Z,4.13
2023-05-17T04:40:53.359Z,4.20
2023-05-17T04:43:21.220Z,4.03
2023-05-17T04:45:49.529Z,3.90
2023-05-17T04:48:19.622Z,3.90
2023-05-17T04:50:47.646Z,4.50
2023-05-17T04:53:16.870Z,4.27
2023-05-17T04:55:44.945Z,4.70
2023-05-17T04:58:13.120Z,4.63
2023-05-17T05:00:41.120Z,4.63
2023-05-17T05:03:09.006Z,4.43
2023-05-17T05:05:36.944Z,5.20
2023-05-17T05:08:04.952Z,4.43
2023-05-17T05:10:34.091Z,3.90
2023-05-17T05:13:01.938Z,4.20
2023-05-17T05:15:29.892Z,5.27
2023-05-17T05:17:58.004Z,5.00
2023-05-17T05:20:27.911Z,4.20
2023-05-17T05:22:58.542Z,4.60
2023-05-17T05:25:26.726Z,5.33
2023-05-17T05:27:56.199Z,4.73
2023-05-17T05:30:24.188Z,4.37
2023-05-17T05:32:52.466Z,4.33
2023-05-17T05:35:20.910Z,3.93
2023-05-17T05:37:48.848Z,4.57
2023-05-17T05:40:16.977Z,3.93
2023-05-17T05:42:47.071Z,4.40
2023-05-17T05:45:16.661Z,4.20
2023-05-17T05:47:44.493Z,4.33
2023-05-17T05:50:12.557Z,4.57
2023-05-17T05:52:40.326Z,4.13
2023-05-17T05:55:08.812Z,4.50
2023-05-17T05:57:36.846Z,4.63
2023-05-17T06:00:05.969Z,4.10
2023-05-17T06:02:35.261Z,4.57
2023-05-17T06:05:03.905Z,4.63
2023-05-17T06:07:31.680Z,4.20
2023-05-17T06:09:59.501Z,4.10
2023-05-17T06:12:27.424Z,4.30
2023-05-17T06:14:55.203Z,4.70
2023-05-17T06:17:23.290Z,4.27
2023-05-17T06:19:52.887Z,3.93
2023-05-17T06:22:20.745Z,4.20
2023-05-17T06:24:48.588Z,4.53
2023-05-17T06:27:16.460Z,3.67
2023-05-17T06:29:44.355Z,4.03
2023-05-17T06:32:12.881Z,3.80
2023-05-17T06:34:41.004Z,4.27
2023-05-17T06:37:10.260Z,4.37
2023-05-17T06:39:38.064Z,4.30
2023-05-17T06:42:06.545Z,4.30
2023-05-17T06:44:34.350Z,4.30
2023-05-17T06:47:02.144Z,3.83
2023-05-17T06:49:29.981Z,4.10
2023-05-17T06:52:03.055Z,4.00
2023-05-17T06:54:32.673Z,4.20
2023-05-17T06:57:01.604Z,3.50
2023-05-17T06:59:29.834Z,4.23
2023-05-17T07:02:00.161Z,4.17
2023-05-17T07:04:28.132Z,4.30
2023-05-17T07:06:56.103Z,4.13
2023-05-17T07:09:23.952Z,3.90
2023-05-17T07:11:53.149Z,3.70
2023-05-17T07:14:20.997Z,3.83
2023-05-17T07:16:49.331Z,3.47
2023-05-17T07:19:17.370Z,3.53
2023-05-17T07:21:46.196Z,3.60
2023-05-17T07:24:14.017Z,3.60
2023-05-17T07:26:41.876Z,3.67
2023-05-17T07:29:11.085Z,3.57
2023-05-17T07:31:38.876Z,3.60
2023-05-17T07:34:06.729Z,3.53
2023-05-17T07:36:34.720Z,3.30
2023-05-17T07:39:02.638Z,3.00
2023-05-17T07:41:31.658Z,3.27
2023-05-17T07:43:59.483Z,3.30
2023-05-17T07:46:28.737Z,3.30
2023-05-17T07:48:58.532Z,3.60
2023-05-17T07:51:27.147Z,2.80
2023-05-17T07:53:55.154Z,3.30
2023-05-17T07:56:22.977Z,3.10
2023-05-17T07:58:51.208Z,3.43
2023-05-17T08:01:18.999Z,3.07
2023-05-17T08:03:48.914Z,3.00
2023-05-17T08:06:17.301Z,3.20
2023-05-17T08:08:45.393Z,3.40
2023-05-17T08:11:14.188Z,4.53
2023-05-17T08:13:42.201Z,3.60
2023-05-17T08:16:14.349Z,3.40
2023-05-17T08:18:43.278Z,3.60
2023-05-17T08:21:12.914Z,3.53
2023-05-17T08:23:42.070Z,3.47
2023-05-17T08:26:09.958Z,3.30
2023-05-17T08:28:37.812Z,3.83
2023-05-17T08:31:05.836Z,3.30
2023-05-17T08:33:33.761Z,3.40
2023-05-17T08:36:04.299Z,3.83
2023-05-17T08:38:34.369Z,4.13
2023-05-17T08:41:03.173Z,4.30
2023-05-17T08:43:32.069Z,3.57
2023-05-17T08:46:00.176Z,3.87
2023-05-17T08:48:31.669Z,3.53
2023-05-17T08:51:00.152Z,3.50
2023-05-17T08:53:28.249Z,3.40
2023-05-17T08:56:00.493Z,3.27
2023-05-17T08:58:31.048Z,2.80
2023-05-17T09:01:00.458Z,3.17
2023-05-17T09:03:30.740Z,3.50
2023-05-17T09:06:00.197Z,3.43
2023-05-17T09:08:30.158Z,3.40
2023-05-17T09:10:59.598Z,3.60
2023-05-17T09:13:27.597Z,3.67
2023-05-17T09:15:56.023Z,3.03
2023-05-17T09:18:30.622Z,3.30
2023-05-17T09:21:03.772Z,4.40
2023-05-17T09:23:34.236Z,3.67
2023-05-17T09:26:09.304Z,3.50
2023-05-17T09:28:42.128Z,4.10
2023-05-17T09:31:10.818Z,3.57
2023-05-17T09:33:44.393Z,3.67
2023-05-17T09:36:21.409Z,3.33
2023-05-17T09:38:56.447Z,3.30
2023-05-17T09:41:27.793Z,3.90
2023-05-17T09:43:59.402Z,3.87
2023-05-17T09:46:27.357Z,3.37
2023-05-17T09:48:55.516Z,3.87
2023-05-17T09:51:33.648Z,3.33
2023-05-17T09:54:01.780Z,3.30
2023-05-17T09:56:31.366Z,3.03
2023-05-17T09:59:00.797Z,3.80
2023-05-17T10:01:30.305Z,3.73
2023-05-17T10:04:00.875Z,3.50
2023-05-17T10:06:44.547Z,3.33
2023-05-17T10:09:15.813Z,3.37
2023-05-17T10:11:48.289Z,3.63
2023-05-17T10:14:22.778Z,3.00
2023-05-17T10:16:51.755Z,3.40
2023-05-17T10:19:21.124Z,3.17
2023-05-17T10:21:49.767Z,4.63
2023-05-17T10:24:18.104Z,3.17
2023-05-17T10:26:47.656Z,2.77
2023-05-17T10:29:16.592Z,3.50
2023-05-17T10:31:44.905Z,3.97
2023-05-17T10:34:14.348Z,3.63
2023-05-17T10:36:43.619Z,3.23
2023-05-17T10:39:12.395Z,3.60
2023-05-17T10:41:43.431Z,3.00
2023-05-17T10:44:14.997Z,3.70
2023-05-17T10:46:52.628Z,3.23
2023-05-17T10:49:24.500Z,2.97
2023-05-17T10:51:52.769Z,3.37
2023-05-17T10:54:20.756Z,3.17
2023-05-17T10:56:50.022Z,3.03
2023-05-17T10:59:21.851Z,3.33
2023-05-17T11:01:52.662Z,3.67
2023-05-17T11:04:25.878Z,3.43
2023-05-17T11:06:55.949Z,3.10
2023-05-17T11:09:24.916Z,3.17
2023-05-17T11:12:06.215Z,3.47
2023-05-17T11:14:55.724Z,3.40
2023-05-17T11:17:26.445Z,2.70
2023-05-17T11:20:07.336Z,3.53
2023-05-17T11:22:40.695Z,3.00
2023-05-17T11:25:10.439Z,2.83
2023-05-17T11:27:39.875Z,2.73
2023-05-17T11:30:18.602Z,3.10
2023-05-17T11:32:51.860Z,2.70
2023-05-17T11:35:20.747Z,2.63
2023-05-17T11:37:49.385Z,2.40
2023-05-17T11:40:26.334Z,2.63
2023-05-17T11:43:15.254Z,2.83
2023-05-17T11:45:53.394Z,2.87
2023-05-17T11:48:23.539Z,2.63
2023-05-17T11:50:52.774Z,2.70
2023-05-17T11:53:21.623Z,2.37
2023-05-17T11:55:51.740Z,2.87
2023-05-17T11:58:21.814Z,2.40
2023-05-17T12:01:01.483Z,2.80
2023-05-17T12:03:30.324Z,2.53
2023-05-17T12:06:06.640Z,2.40
2023-05-17T12:08:36.000Z,2.60
2023-05-17T12:11:04.762Z,2.80
2023-05-17T12:13:34.292Z,2.80
2023-05-17T12:16:05.827Z,2.67
2023-05-17T12:18:38.168Z,2.60
2023-05-17T12:21:06.953Z,2.43
2023-05-17T12:23:37.545Z,2.57
2023-05-17T12:26:06.874Z,2.60
2023-05-17T12:28:35.130Z,2.50
2023-05-17T12:31:05.479Z,2.90
2023-05-17T12:33:35.488Z,2.33
2023-05-17T12:36:04.653Z,2.60
2023-05-17T12:38:33.808Z,2.43
2023-05-17T12:41:02.649Z,2.73
2023-05-17T12:43:31.768Z,2.40
2023-05-17T12:46:18.985Z,2.77
2023-05-17T12:48:47.328Z,2.47
2023-05-17T12:51:16.618Z,2.47
2023-05-17T12:53:45.400Z,2.77
2023-05-17T12:56:23.080Z,2.57
2023-05-17T12:59:08.873Z,2.47
2023-05-17T13:01:40.034Z,2.53
2023-05-17T13:04:07.933Z,2.77
2023-05-17T13:06:54.028Z,2.37
2023-05-17T13:09:24.247Z,2.17
2023-05-17T13:11:52.503Z,3.10
2023-05-17T13:14:34.961Z,2.73
2023-05-17T13:17:06.079Z,2.37
2023-05-17T13:19:35.807Z,2.60
2023-05-17T13:22:03.954Z,2.40
2023-05-17T13:24:32.570Z,2.57
2023-05-17T13:27:00.392Z,2.87
2023-05-17T13:29:38.799Z,2.53
2023-05-17T13:32:09.683Z,2.33
2023-05-17T13:34:37.664Z,2.63
2023-05-17T13:37:08.653Z,2.43
2023-05-17T13:39:38.286Z,2.80
2023-05-17T13:42:06.621Z,2.70
2023-05-17T13:44:34.595Z,2.10
2023-05-17T13:47:02.459Z,2.10
2023-05-17T13:49:32.032Z,2.30
2023-05-17T13:52:00.745Z,2.63
2023-05-17T13:54:28.728Z,2.33
2023-05-17T13:56:57.667Z,2.25
2023-05-17T13:59:26.233Z,2.60
2023-05-17T14:01:54.089Z,2.20
2023-05-17T14:04:22.685Z,2.30
2023-05-17T14:06:54.771Z,2.27
2023-05-17T14:09:22.867Z,2.78
2023-05-17T14:11:50.652Z,2.35
2023-05-17T14:14:18.449Z,2.78
2023-05-17T14:16:46.270Z,2.72
2023-05-17T14:19:14.264Z,2.63
2023-05-17T14:21:42.095Z,2.20
2023-05-17T14:24:11.450Z,2.57
2023-05-17T14:26:39.404Z,2.63
2023-05-17T14:29:07.639Z,2.63
2023-05-17T14:31:35.594Z,2.60
2023-05-17T14:34:03.975Z,2.90
2023-05-17T14:36:35.682Z,2.67
2023-05-17T14:39:03.885Z,2.60
2023-05-17T14:41:33.157Z,3.20
2023-05-17T14:44:01.133Z,2.83
2023-05-17T14:46:28.980Z,2.35
2023-05-17T14:48:56.986Z,2.60
2023-05-17T14:51:25.155Z,2.58
2023-05-17T14:53:54.326Z,2.50
2023-05-17T14:56:22.303Z,2.57
2023-05-17T14:58:51.595Z,2.43
2023-05-17T15:01:19.431Z,2.53
2023-05-17T15:03:47.384Z,2.50
2023-05-17T15:06:15.404Z,2.60
2023-05-17T15:08:43.255Z,2.40
2023-05-17T15:11:11.192Z,2.40
2023-05-17T15:13:38.992Z,2.30
2023-05-17T15:16:09.006Z,2.55
2023-05-17T15:18:37.922Z,2.45
2023-05-17T15:21:06.716Z,2.17
2023-05-17T15:23:34.571Z,2.58
2023-05-17T15:26:02.377Z,2.90
2023-05-17T15:28:30.155Z,2.50
2023-05-17T15:31:01.998Z,3.20
2023-05-17T15:33:32.266Z,3.00
2023-05-17T15:36:00.171Z,2.40
2023-05-17T15:38:27.938Z,2.43
2023-05-17T15:41:05.141Z,2.30
2023-05-17T15:43:33.595Z,2.95
2023-05-17T15:46:01.896Z,2.50
2023-05-17T15:48:31.146Z,2.72
2023-05-17T15:50:59.189Z,2.40
2023-05-17T15:53:27.902Z,3.15
2023-05-17T15:55:56.171Z,2.60
2023-05-17T15:58:25.583Z,2.55
2023-05-17T16:00:53.427Z,2.75
2023-05-17T16:03:21.274Z,2.50
2023-05-17T16:05:50.524Z,2.50
2023-05-17T16:08:20.482Z,2.10
2023-05-17T16:10:48.427Z,2.30
2023-05-17T16:13:16.310Z,2.38
2023-05-17T16:15:44.393Z,2.42
2023-05-17T16:18:14.823Z,2.50
2023-05-17T16:20:42.961Z,2.72
2023-05-17T16:23:12.927Z,2.60
2023-05-17T16:25:41.596Z,2.20
2023-05-17T16:28:09.426Z,2.42
2023-05-17T16:30:37.572Z,2.45
2023-05-17T16:33:08.260Z,2.47
2023-05-17T16:35:36.487Z,2.83
2023-05-17T16:38:04.276Z,2.57
2023-05-17T16:40:33.849Z,2.50
2023-05-17T16:43:02.147Z,2.78
2023-05-17T16:45:30.120Z,2.33
2023-05-17T16:47:58.225Z,2.43
2023-05-17T16:50:26.129Z,2.03
2023-05-17T16:52:54.023Z,2.53
2023-05-17T16:55:21.951Z,2.30
2023-05-17T16:57:51.428Z,2.50
2023-05-17T17:00:20.077Z,2.07
2023-05-17T17:02:49.395Z,2.63
2023-05-17T17:05:20.593Z,2.70
2023-05-17T17:07:48.370Z,2.57
2023-05-17T17:10:16.386Z,2.67
2023-05-17T17:12:44.174Z,2.40
2023-05-17T17:15:14.088Z,2.90
2023-05-17T17:17:41.994Z,2.23
2023-05-17T17:20:11.256Z,2.40
2023-05-17T17:22:39.096Z,2.50
2023-05-17T17:25:07.692Z,2.77
2023-05-17T17:27:35.877Z,3.00
2023-05-17T17:30:04.095Z,2.30
2023-05-17T17:32:33.474Z,2.60
2023-05-17T17:35:01.590Z,2.67
2023-05-17T17:37:29.427Z,2.30
2023-05-17T17:39:57.502Z,2.27
2023-05-17T17:42:25.278Z,2.10
2023-05-17T17:44:53.112Z,1.90
2023-05-17T17:47:21.026Z,1.97
2023-05-17T17:49:50.276Z,2.33
2023-05-17T17:52:18.119Z,3.60
2023-05-17T17:54:46.285Z,3.10
2023-05-17T17:57:14.227Z,2.50
2023-05-17T17:59:42.006Z,2.27
2023-05-17T18:02:10.058Z,2.10
2023-05-17T18:04:37.922Z,2.20
2023-05-17T18:07:07.293Z,1.67
2023-05-17T18:09:35.055Z,2.17
2023-05-17T18:12:03.673Z,2.43
2023-05-17T18:14:31.495Z,2.50
2023-05-17T18:16:59.320Z,1.80
2023-05-17T18:19:27.171Z,2.20
2023-05-17T18:21:54.968Z,2.20
2023-05-17T18:24:24.208Z,2.37
2023-05-17T18:26:52.059Z,2.57
2023-05-17T18:29:19.965Z,2.27
2023-05-17T18:31:48.422Z,2.50
2023-05-17T18:34:16.354Z,3.83
2023-05-17T18:36:44.186Z,2.60
2023-05-17T18:39:12.102Z,2.57
2023-05-17T18:41:41.291Z,2.43
2023-05-17T18:44:09.064Z,2.33
2023-05-17T18:46:36.995Z,2.37
2023-05-17T18:49:05.647Z,2.70
2023-05-17T18:51:33.498Z,2.43
2023-05-17T18:54:01.286Z,2.33
2023-05-17T18:56:30.423Z,2.63
2023-05-17T18:59:00.188Z,2.43
2023-05-17T19:01:28.521Z,2.17
2023-05-17T19:03:56.598Z,2.63
2023-05-17T19:06:26.760Z,2.10
2023-05-17T19:08:55.426Z,2.60
2023-05-17T19:11:23.230Z,2.20
2023-05-17T19:13:51.341Z,2.20
2023-05-17T19:16:20.491Z,2.40
2023-05-17T19:18:48.345Z,2.07
2023-05-17T19:21:16.232Z,2.03
2023-05-17T19:23:44.072Z,2.17
2023-05-17T19:26:11.954Z,2.30
2023-05-17T19:28:40.010Z,1.93
2023-05-17T19:31:08.343Z,2.67
2023-05-17T19:33:37.817Z,2.07
2023-05-17T19:36:05.939Z,2.20
2023-05-17T19:38:33.780Z,1.87
2023-05-17T19:41:01.962Z,2.23
2023-05-17T19:43:29.821Z,2.37
2023-05-17T19:45:57.620Z,2.37
2023-05-17T19:48:27.538Z,2.00
2023-05-17T19:50:57.251Z,2.10
2023-05-17T19:53:25.051Z,2.10
2023-05-17T19:55:53.406Z,2.10
2023-05-17T19:58:21.319Z,2.23
2023-05-17T20:00:49.108Z,2.00
2023-05-17T20:03:17.153Z,2.77
2023-05-17T20:05:45.239Z,2.20
2023-05-17T20:08:14.705Z,2.43
2023-05-17T20:10:42.554Z,2.67
2023-05-17T20:13:10.936Z,2.83
2023-05-17T20:15:38.975Z,2.30
2023-05-17T20:18:09.276Z,2.07
2023-05-17T20:20:37.276Z,2.90
2023-05-17T20:23:06.303Z,2.43
2023-05-17T20:25:36.222Z,2.37
2023-05-17T20:28:04.044Z,2.50
2023-05-17T20:30:32.193Z,2.50
2023-05-17T20:33:00.269Z,2.40
2023-05-17T20:35:28.469Z,2.50
2023-05-17T20:37:56.272Z,2.57
2023-05-17T20:40:24.058Z,3.00
2023-05-17T20:42:53.665Z,2.03
2023-05-17T20:45:21.753Z,2.47
2023-05-17T20:47:51.307Z,2.53
2023-05-17T20:50:21.470Z,3.03
2023-05-17T20:52:49.666Z,2.43
2023-05-17T20:55:17.660Z,2.30
2023-05-17T20:57:45.442Z,2.80
2023-05-17T21:00:17.171Z,2.40
2023-05-17T21:02:45.354Z,2.60
2023-05-17T21:05:13.869Z,2.33
2023-05-17T21:07:41.780Z,2.80
2023-05-17T21:10:10.483Z,2.60
2023-05-17T21:12:38.665Z,2.93
2023-05-17T21:15:15.723Z,2.50
2023-05-17T21:17:57.063Z,3.00
2023-05-17T21:20:25.062Z,2.70
2023-05-17T21:22:52.899Z,3.10
2023-05-17T21:25:21.115Z,2.73
2023-05-17T21:27:48.902Z,2.70
2023-05-17T21:30:17.106Z,2.90
2023-05-17T21:32:45.256Z,2.80
2023-05-17T21:35:14.661Z,2.53
2023-05-17T21:37:42.595Z,2.50
2023-05-17T21:40:11.150Z,3.43
2023-05-17T21:42:39.200Z,3.03
2023-05-17T21:45:08.112Z,2.60
2023-05-17T21:47:36.828Z,3.27
2023-05-17T21:50:05.938Z,2.70
2023-05-17T21:52:35.363Z,2.90
2023-05-17T21:55:03.172Z,2.77
2023-05-17T21:57:33.032Z,2.80
2023-05-17T22:00:01.186Z,3.07
2023-05-17T22:02:29.359Z,2.80
2023-05-17T22:04:57.331Z,3.00
2023-05-17T22:07:25.643Z,3.17
2023-05-17T22:09:55.328Z,3.03
2023-05-17T22:12:25.684Z,3.00
2023-05-17T22:14:54.291Z,2.77
2023-05-17T22:17:29.519Z,2.87
2023-05-17T22:20:04.098Z,3.00
2023-05-17T22:22:32.902Z,3.00
2023-05-17T22:25:02.614Z,3.10
2023-05-17T22:27:30.540Z,2.90
2023-05-17T22:29:58.431Z,2.60
2023-05-17T22:32:26.563Z,3.07
2023-05-17T22:34:56.395Z,3.23
2023-05-17T22:37:24.360Z,3.17
2023-05-17T22:39:52.602Z,3.40
2023-05-17T22:42:22.076Z,3.23
2023-05-17T22:44:49.878Z,3.43
2023-05-17T22:47:17.965Z,2.97
2023-05-17T22:49:46.943Z,3.50
2023-05-17T22:52:16.618Z,3.60
2023-05-17T22:54:44.508Z,2.63
2023-05-17T22:57:12.801Z,2.67
2023-05-17T22:59:44.053Z,3.00
2023-05-17T23:02:12.865Z,3.00
2023-05-17T23:04:41.055Z,3.73
2023-05-17T23:07:10.099Z,3.03
2023-05-17T23:09:40.689Z,3.40
2023-05-17T23:12:13.940Z,3.10
2023-05-17T23:14:43.571Z,3.10
2023-05-17T23:17:11.552Z,3.27
2023-05-17T23:19:40.736Z,2.63
2023-05-17T23:22:13.212Z,3.07
2023-05-17T23:24:41.167Z,2.90
2023-05-17T23:27:10.182Z,3.03
2023-05-17T23:29:41.468Z,2.60
2023-05-17T23:32:10.757Z,2.87
2023-05-17T23:34:39.010Z,3.03
2023-05-17T23:37:06.881Z,3.53
2023-05-17T23:39:34.677Z,2.90
2023-05-17T23:42:02.894Z,3.00
2023-05-17T23:44:30.782Z,3.00
2023-05-17T23:46:59.985Z,3.03
2023-05-17T23:49:29.188Z,3.10
2023-05-17T23:51:58.000Z,3.17
2023-05-17T23:54:26.110Z,2.70
2023-05-17T23:56:53.978Z,2.93
2023-05-17T23:59:24.444Z,2.77
